sensor_id;sensor_type;location;lat;lon;timestamp;pressure;altitude;pressure_sealevel;temperature;humidity
44138;BME280;29800;55.942;37.314;2023-04-21T00:00:51;99616.06;;;7.03;40.21
44138;BME280;29800;55.942;37.314;2023-04-21T00:03:19;99617.81;;;6.97;40.35
44138;BME280;29800;55.942;37.314;2023-04-21T00:05:47;99615.41;;;6.89;41.74
44138;BME280;29800;55.942;37.314;2023-04-21T00:08:14;99617.97;;;6.84;41.28
44138;BME280;29800;55.942;37.314;2023-04-21T00:10:41;99608.03;;;6.77;40.57
44138;BME280;29800;55.942;37.314;2023-04-21T00:13:08;99613.69;;;6.76;40.25
44138;BME280;29800;55.942;37.314;2023-04-21T00:15:35;99609.06;;;6.76;40.20
44138;BME280;29800;55.942;37.314;2023-04-21T00:18:02;99608.03;;;6.77;39.71
44138;BME280;29800;55.942;37.314;2023-04-21T00:20:29;99601.50;;;6.78;39.37
44138;BME280;29800;55.942;37.314;2023-04-21T00:22:56;99601.50;;;6.78;39.43
44138;BME280;29800;55.942;37.314;2023-04-21T00:25:24;99609.22;;;6.81;38.97
44138;BME280;29800;55.942;37.314;2023-04-21T00:27:50;99599.63;;;6.79;39.85
44138;BME280;29800;55.942;37.314;2023-04-21T00:30:17;99605.91;;;6.79;39.80
44138;BME280;29800;55.942;37.314;2023-04-21T00:32:43;99607.78;;;6.79;39.52
44138;BME280;29800;55.942;37.314;2023-04-21T00:35:10;99611.19;;;6.74;40.21
44138;BME280;29800;55.942;37.314;2023-04-21T00:37:36;99615.63;;;6.69;39.98
44138;BME280;29800;55.942;37.314;2023-04-21T00:40:03;99608.56;;;6.68;40.02
44138;BME280;29800;55.942;37.314;2023-04-21T00:42:31;99600.63;;;6.66;40.51
44138;BME280;29800;55.942;37.314;2023-04-21T00:44:58;99602.75;;;6.64;40.02
44138;BME280;29800;55.942;37.314;2023-04-21T00:47:24;99598.56;;;6.61;39.99
44138;BME280;29800;55.942;37.314;2023-04-21T00:49:52;99597.53;;;6.62;40.20
44138;BME280;29800;55.942;37.314;2023-04-21T00:52:20;99595.25;;;6.59;39.97
44138;BME280;29800;55.942;37.314;2023-04-21T00:54:47;99590.06;;;6.58;40.37
44138;BME280;29800;55.942;37.314;2023-04-21T00:57:14;99589.91;;;6.53;40.84
44138;BME280;29800;55.942;37.314;2023-04-21T00:59:41;99585.97;;;6.49;40.48
44138;BME280;29800;55.942;37.314;2023-04-21T01:02:08;99587.50;;;6.44;40.31
44138;BME280;29800;55.942;37.314;2023-04-21T01:04:34;99584.38;;;6.41;40.44
44138;BME280;29800;55.942;37.314;2023-04-21T01:07:05;99583.78;;;6.39;40.28
44138;BME280;29800;55.942;37.314;2023-04-21T01:09:33;99582.34;;;6.36;40.64
44138;BME280;29800;55.942;37.314;2023-04-21T01:12:07;99575.47;;;6.34;40.95
44138;BME280;29800;55.942;37.314;2023-04-21T01:14:35;99580.09;;;6.33;40.35
44138;BME280;29800;55.942;37.314;2023-04-21T01:17:03;99577.81;;;6.30;40.75
44138;BME280;29800;55.942;37.314;2023-04-21T01:19:36;99576.13;;;6.29;40.33
44138;BME280;29800;55.942;37.314;2023-04-21T01:22:08;99577.22;;;6.28;41.00
44138;BME280;29800;55.942;37.314;2023-04-21T01:24:44;99570.94;;;6.28;41.27
44138;BME280;29800;55.942;37.314;2023-04-21T01:27:14;99570.56;;;6.24;40.87
44138;BME280;29800;55.942;37.314;2023-04-21T01:29:42;99574.81;;;6.20;41.25
44138;BME280;29800;55.942;37.314;2023-04-21T01:32:12;99572.53;;;6.17;41.04
44138;BME280;29800;55.942;37.314;2023-04-21T01:34:40;99572.38;;;6.12;41.41
44138;BME280;29800;55.942;37.314;2023-04-21T01:37:12;99572.38;;;6.12;42.29
44138;BME280;29800;55.942;37.314;2023-04-21T01:39:43;99566.97;;;6.05;42.09
44138;BME280;29800;55.942;37.314;2023-04-21T01:42:11;99572.03;;;6.01;41.98
44138;BME280;29800;55.942;37.314;2023-04-21T01:44:38;99566.44;;;5.96;42.40
44138;BME280;29800;55.942;37.314;2023-04-21T01:47:05;99567.50;;;5.95;42.65
44138;BME280;29800;55.942;37.314;2023-04-21T01:49:32;99568.75;;;5.93;42.99
44138;BME280;29800;55.942;37.314;2023-04-21T01:51:58;99564.00;;;5.88;42.90
44138;BME280;29800;55.942;37.314;2023-04-21T01:54:24;99559.22;;;5.83;43.45
44138;BME280;29800;55.942;37.314;2023-04-21T01:56:51;99557.16;;;5.79;43.15
44138;BME280;29800;55.942;37.314;2023-04-21T01:59:20;99563.06;;;5.76;43.17
44138;BME280;29800;55.942;37.314;2023-04-21T02:01:46;99559.13;;;5.71;43.45
44138;BME280;29800;55.942;37.314;2023-04-21T02:04:13;99563.97;;;5.69;43.37
44138;BME280;29800;55.942;37.314;2023-04-21T02:06:39;99574.81;;;5.69;43.37
44138;BME280;29800;55.942;37.314;2023-04-21T02:09:06;99571.03;;;5.70;43.12
44138;BME280;29800;55.942;37.314;2023-04-21T02:11:32;99570.00;;;5.71;42.77
44138;BME280;29800;55.942;37.314;2023-04-21T02:13:59;99574.16;;;5.74;42.97
44138;BME280;29800;55.942;37.314;2023-04-21T02:16:26;99566.00;;;5.74;42.70
44138;BME280;29800;55.942;37.314;2023-04-21T02:18:53;99568.50;;;5.76;42.53
44138;BME280;29800;55.942;37.314;2023-04-21T02:21:22;99576.44;;;5.77;42.40
44138;BME280;29800;55.942;37.314;2023-04-21T02:23:50;99565.56;;;5.77;42.82
44138;BME280;29800;55.942;37.314;2023-04-21T02:26:18;99567.44;;;5.77;42.51
44138;BME280;29800;55.942;37.314;2023-04-21T02:28:44;99563.91;;;5.76;43.11
44138;BME280;29800;55.942;37.314;2023-04-21T02:31:14;99572.50;;;5.73;43.07
44138;BME280;29800;55.942;37.314;2023-04-21T02:33:40;99567.28;;;5.71;43.13
44138;BME280;29800;55.942;37.314;2023-04-21T02:36:07;99570.22;;;5.70;43.72
44138;BME280;29800;55.942;37.314;2023-04-21T02:38:33;99571.88;;;5.71;43.58
44138;BME280;29800;55.942;37.314;2023-04-21T02:40:59;99573.38;;;5.67;43.56
44138;BME280;29800;55.942;37.314;2023-04-21T02:43:26;99571.28;;;5.69;43.72
44138;BME280;29800;55.942;37.314;2023-04-21T02:45:54;99575.88;;;5.68;43.69
44138;BME280;29800;55.942;37.314;2023-04-21T02:48:20;99581.94;;;5.64;43.46
44138;BME280;29800;55.942;37.314;2023-04-21T02:50:51;99578.59;;;5.68;43.81
44138;BME280;29800;55.942;37.314;2023-04-21T02:53:20;99578.78;;;5.67;43.53
44138;BME280;29800;55.942;37.314;2023-04-21T02:55:46;99573.38;;;5.67;43.68
44138;BME280;29800;55.942;37.314;2023-04-21T02:58:13;99572.72;;;5.71;43.49
44138;BME280;29800;55.942;37.314;2023-04-21T03:00:41;99576.44;;;5.77;43.29
44138;BME280;29800;55.942;37.314;2023-04-21T03:03:07;99567.38;;;5.83;43.12
44138;BME280;29800;55.942;37.314;2023-04-21T03:05:34;99568.38;;;5.89;42.37
44138;BME280;29800;55.942;37.314;2023-04-21T03:08:01;99570.84;;;5.97;42.11
44138;BME280;29800;55.942;37.314;2023-04-21T03:10:27;99577.63;;;6.06;41.60
44138;BME280;29800;55.942;37.314;2023-04-21T03:12:55;99569.81;;;6.17;41.63
44138;BME280;29800;55.942;37.314;2023-04-21T03:15:23;99571.78;;;6.28;41.42
44138;BME280;29800;55.942;37.314;2023-04-21T03:17:49;99576.91;;;6.36;40.99
44138;BME280;29800;55.942;37.314;2023-04-21T03:20:16;99568.69;;;6.43;41.31
44138;BME280;29800;55.942;37.314;2023-04-21T03:22:43;99560.22;;;6.51;41.12
44138;BME280;29800;55.942;37.314;2023-04-21T03:25:09;99564.50;;;6.59;40.76
44138;BME280;29800;55.942;37.314;2023-04-21T03:27:37;99566.44;;;6.70;40.54
44138;BME280;29800;55.942;37.314;2023-04-21T03:30:04;99569.94;;;6.77;40.52
44138;BME280;29800;55.942;37.314;2023-04-21T03:32:32;99566.91;;;6.86;40.28
44138;BME280;29800;55.942;37.314;2023-04-21T03:34:58;99569.88;;;6.96;40.28
44138;BME280;29800;55.942;37.314;2023-04-21T03:37:25;99567.44;;;7.06;39.43
44138;BME280;29800;55.942;37.314;2023-04-21T03:39:51;99559.06;;;7.20;40.16
44138;BME280;29800;55.942;37.314;2023-04-21T03:42:19;99571.56;;;7.39;40.71
44138;BME280;29800;55.942;37.314;2023-04-21T03:44:45;99560.59;;;7.58;39.06
44138;BME280;29800;55.942;37.314;2023-04-21T03:47:12;99563.22;;;7.76;39.81
44138;BME280;29800;55.942;37.314;2023-04-21T03:49:38;99559.91;;;7.86;38.76
44138;BME280;29800;55.942;37.314;2023-04-21T03:52:04;99553.75;;;8.02;39.32
44138;BME280;29800;55.942;37.314;2023-04-21T03:54:31;99562.13;;;8.13;39.08
44138;BME280;29800;55.942;37.314;2023-04-21T03:56:57;99562.97;;;8.25;38.38
44138;BME280;29800;55.942;37.314;2023-04-21T03:59:23;99564.34;;;8.39;37.42
44138;BME280;29800;55.942;37.314;2023-04-21T04:01:50;99561.75;;;8.56;37.52
44138;BME280;29800;55.942;37.314;2023-04-21T04:04:16;99562.88;;;8.72;36.89
44138;BME280;29800;55.942;37.314;2023-04-21T04:06:42;99566.88;;;8.81;37.27
44138;BME280;29800;55.942;37.314;2023-04-21T04:09:10;99567.78;;;8.99;36.82
44138;BME280;29800;55.942;37.314;2023-04-21T04:11:37;99565.66;;;9.18;36.80
44138;BME280;29800;55.942;37.314;2023-04-21T04:14:03;99568.69;;;9.33;35.57
44138;BME280;29800;55.942;37.314;2023-04-21T04:16:29;99569.50;;;9.51;36.67
44138;BME280;29800;55.942;37.314;2023-04-21T04:18:56;99568.34;;;9.64;35.95
44138;BME280;29800;55.942;37.314;2023-04-21T04:21:22;99566.97;;;9.78;36.06
44138;BME280;29800;55.942;37.314;2023-04-21T04:23:49;99558.56;;;10.02;36.37
44138;BME280;29800;55.942;37.314;2023-04-21T04:26:19;99550.91;;;10.21;37.79
44138;BME280;29800;55.942;37.314;2023-04-21T04:28:47;99554.97;;;10.35;35.41
44138;BME280;29800;55.942;37.314;2023-04-21T04:31:14;99550.19;;;10.47;34.83
44138;BME280;29800;55.942;37.314;2023-04-21T04:33:42;99565.41;;;10.60;34.18
44138;BME280;29800;55.942;37.314;2023-04-21T04:36:09;99547.53;;;10.75;33.96
44138;BME280;29800;55.942;37.314;2023-04-21T04:38:36;99560.63;;;10.95;34.43
44138;BME280;29800;55.942;37.314;2023-04-21T04:41:03;99558.81;;;11.06;33.97
44138;BME280;29800;55.942;37.314;2023-04-21T04:43:30;99557.25;;;11.15;33.70
44138;BME280;29800;55.942;37.314;2023-04-21T04:46:02;99558.34;;;11.41;34.31
44138;BME280;29800;55.942;37.314;2023-04-21T04:48:28;99567.75;;;11.50;32.84
44138;BME280;29800;55.942;37.314;2023-04-21T04:50:55;99561.00;;;11.63;33.69
44138;BME280;29800;55.942;37.314;2023-04-21T04:53:21;99553.63;;;11.69;32.34
44138;BME280;29800;55.942;37.314;2023-04-21T04:55:48;99552.63;;;11.80;32.53
44138;BME280;29800;55.942;37.314;2023-04-21T04:58:14;99555.47;;;11.90;31.36
44138;BME280;29800;55.942;37.314;2023-04-21T05:00:40;99547.34;;;12.01;32.55
44138;BME280;29800;55.942;37.314;2023-04-21T05:03:07;99547.38;;;12.06;32.79
44138;BME280;29800;55.942;37.314;2023-04-21T05:05:33;99548.47;;;12.10;31.62
44138;BME280;29800;55.942;37.314;2023-04-21T05:07:59;99555.09;;;12.14;31.45
44138;BME280;29800;55.942;37.314;2023-04-21T05:10:26;99547.97;;;12.18;30.90
44138;BME280;29800;55.942;37.314;2023-04-21T05:12:52;99545.84;;;12.25;31.18
44138;BME280;29800;55.942;37.314;2023-04-21T05:15:18;99537.38;;;12.37;31.34
44138;BME280;29800;55.942;37.314;2023-04-21T05:17:45;99541.03;;;12.53;31.59
44138;BME280;29800;55.942;37.314;2023-04-21T05:20:12;99534.50;;;12.64;29.81
44138;BME280;29800;55.942;37.314;2023-04-21T05:22:38;99535.34;;;12.80;29.95
44138;BME280;29800;55.942;37.314;2023-04-21T05:25:06;99528.78;;;12.86;29.40
44138;BME280;29800;55.942;37.314;2023-04-21T05:27:32;99527.44;;;12.89;29.26
44138;BME280;29800;55.942;37.314;2023-04-21T05:29:59;99525.50;;;12.90;28.51
44138;BME280;29800;55.942;37.314;2023-04-21T05:32:26;99537.31;;;12.90;29.48
44138;BME280;29800;55.942;37.314;2023-04-21T05:34:52;99527.97;;;12.91;28.86
44138;BME280;29800;55.942;37.314;2023-04-21T05:37:19;99534.56;;;12.95;28.89
44138;BME280;29800;55.942;37.314;2023-04-21T05:39:45;99529.06;;;12.95;28.50
44138;BME280;29800;55.942;37.314;2023-04-21T05:42:11;99532.13;;;12.99;28.47
44138;BME280;29800;55.942;37.314;2023-04-21T05:44:38;99526.66;;;13.04;28.30
44138;BME280;29800;55.942;37.314;2023-04-21T05:47:04;99529.13;;;13.11;28.65
44138;BME280;29800;55.942;37.314;2023-04-21T05:49:31;99526.38;;;13.16;28.25
44138;BME280;29800;55.942;37.314;2023-04-21T05:51:57;99527.25;;;13.27;29.05
44138;BME280;29800;55.942;37.314;2023-04-21T05:54:24;99532.50;;;13.33;28.60
44138;BME280;29800;55.942;37.314;2023-04-21T05:56:50;99525.34;;;13.42;28.65
44138;BME280;29800;55.942;37.314;2023-04-21T05:59:16;99525.91;;;13.50;28.20
44138;BME280;29800;55.942;37.314;2023-04-21T06:01:43;99519.31;;;13.61;28.23
44138;BME280;29800;55.942;37.314;2023-04-21T06:04:09;99518.75;;;13.74;27.66
44138;BME280;29800;55.942;37.314;2023-04-21T06:06:36;99520.38;;;13.91;28.14
44138;BME280;29800;55.942;37.314;2023-04-21T06:09:02;99523.66;;;13.98;28.17
44138;BME280;29800;55.942;37.314;2023-04-21T06:11:28;99517.59;;;14.06;28.02
44138;BME280;29800;55.942;37.314;2023-04-21T06:13:55;99510.94;;;14.23;28.38
44138;BME280;29800;55.942;37.314;2023-04-21T06:16:23;99512.84;;;14.32;27.68
44138;BME280;29800;55.942;37.314;2023-04-21T06:18:50;99506.19;;;14.44;27.89
44138;BME280;29800;55.942;37.314;2023-04-21T06:21:16;99505.59;;;14.52;26.98
44138;BME280;29800;55.942;37.314;2023-04-21T06:23:42;99503.13;;;14.66;27.53
44138;BME280;29800;55.942;37.314;2023-04-21T06:26:09;99501.38;;;14.75;26.74
44138;BME280;29800;55.942;37.314;2023-04-21T06:28:36;99506.56;;;14.87;26.77
44138;BME280;29800;55.942;37.314;2023-04-21T06:31:04;99508.41;;;15.02;27.35
44138;BME280;29800;55.942;37.314;2023-04-21T06:33:30;99506.38;;;15.18;26.43
44138;BME280;29800;55.942;37.314;2023-04-21T06:35:57;99502.44;;;15.29;26.37
44138;BME280;29800;55.942;37.314;2023-04-21T06:38:23;99498.72;;;15.44;25.89
44138;BME280;29800;55.942;37.314;2023-04-21T06:40:50;99498.34;;;15.56;25.53
44138;BME280;29800;55.942;37.314;2023-04-21T06:43:16;99493.56;;;15.67;25.61
44138;BME280;29800;55.942;37.314;2023-04-21T06:45:43;99500.09;;;15.81;26.36
44138;BME280;29800;55.942;37.314;2023-04-21T06:48:09;99495.28;;;15.92;25.82
44138;BME280;29800;55.942;37.314;2023-04-21T06:50:36;99489.69;;;16.02;25.59
44138;BME280;29800;55.942;37.314;2023-04-21T06:53:02;99498.13;;;16.11;25.11
44138;BME280;29800;55.942;37.314;2023-04-21T06:55:28;99494.72;;;16.19;25.06
44138;BME280;29800;55.942;37.314;2023-04-21T06:57:55;99484.63;;;16.33;24.77
44138;BME280;29800;55.942;37.314;2023-04-21T07:00:21;99486.19;;;16.40;24.79
44138;BME280;29800;55.942;37.314;2023-04-21T07:02:48;99482.75;;;16.53;24.95
44138;BME280;29800;55.942;37.314;2023-04-21T07:05:14;99478.72;;;16.64;24.88
44138;BME280;29800;55.942;37.314;2023-04-21T07:07:40;99465.44;;;16.66;24.48
44138;BME280;29800;55.942;37.314;2023-04-21T07:10:07;99470.00;;;16.76;24.30
44138;BME280;29800;55.942;37.314;2023-04-21T07:12:34;99472.84;;;16.90;24.30
44138;BME280;29800;55.942;37.314;2023-04-21T07:15:00;99461.72;;;16.95;23.97
44138;BME280;29800;55.942;37.314;2023-04-21T07:17:27;99472.47;;;17.16;24.39
44138;BME280;29800;55.942;37.314;2023-04-21T07:19:53;99467.59;;;17.26;24.05
44138;BME280;29800;55.942;37.314;2023-04-21T07:22:20;99470.53;;;17.49;23.92
44138;BME280;29800;55.942;37.314;2023-04-21T07:24:46;99464.47;;;17.66;23.86
44138;BME280;29800;55.942;37.314;2023-04-21T07:27:13;99462.53;;;17.80;23.36
44138;BME280;29800;55.942;37.314;2023-04-21T07:29:39;99463.19;;;17.91;22.49
44138;BME280;29800;55.942;37.314;2023-04-21T07:32:05;99466.34;;;17.85;22.74
44138;BME280;29800;55.942;37.314;2023-04-21T07:34:32;99457.47;;;17.88;23.24
44138;BME280;29800;55.942;37.314;2023-04-21T07:36:58;99454.28;;;17.94;22.87
44138;BME280;29800;55.942;37.314;2023-04-21T07:39:24;99459.09;;;18.16;22.43
44138;BME280;29800;55.942;37.314;2023-04-21T07:41:51;99456.75;;;18.37;23.88
44138;BME280;29800;55.942;37.314;2023-04-21T07:44:18;99445.66;;;18.51;22.67
44138;BME280;29800;55.942;37.314;2023-04-21T07:46:45;99447.16;;;18.58;22.55
44138;BME280;29800;55.942;37.314;2023-04-21T07:49:11;99441.31;;;18.73;22.41
44138;BME280;29800;55.942;37.314;2023-04-21T07:51:38;99438.31;;;18.83;21.89
44138;BME280;29800;55.942;37.314;2023-04-21T07:54:05;99439.66;;;19.08;24.15
44138;BME280;29800;55.942;37.314;2023-04-21T07:56:31;99441.31;;;19.32;22.59
44138;BME280;29800;55.942;37.314;2023-04-21T07:58:57;99445.66;;;19.47;22.33
44138;BME280;29800;55.942;37.314;2023-04-21T08:01:24;99441.19;;;19.60;22.45
44138;BME280;29800;55.942;37.314;2023-04-21T08:03:50;99434.91;;;19.77;22.14
44138;BME280;29800;55.942;37.314;2023-04-21T08:06:17;99430.38;;;19.81;21.32
44138;BME280;29800;55.942;37.314;2023-04-21T08:08:43;99434.00;;;19.90;20.87
44138;BME280;29800;55.942;37.314;2023-04-21T08:11:10;99428.97;;;19.92;21.38
44138;BME280;29800;55.942;37.314;2023-04-21T08:13:36;99425.72;;;19.99;20.49
44138;BME280;29800;55.942;37.314;2023-04-21T08:16:02;99432.56;;;20.01;20.51
44138;BME280;29800;55.942;37.314;2023-04-21T08:18:29;99425.59;;;20.13;20.76
44138;BME280;29800;55.942;37.314;2023-04-21T08:20:56;99422.41;;;20.46;21.09
44138;BME280;29800;55.942;37.314;2023-04-21T08:23:23;99417.88;;;20.50;20.88
44138;BME280;29800;55.942;37.314;2023-04-21T08:25:49;99417.38;;;20.56;21.44
44138;BME280;29800;55.942;37.314;2023-04-21T08:28:15;99412.94;;;20.47;20.74
44138;BME280;29800;55.942;37.314;2023-04-21T08:30:42;99407.72;;;20.54;20.69
44138;BME280;29800;55.942;37.314;2023-04-21T08:33:08;99408.06;;;20.61;20.32
44138;BME280;29800;55.942;37.314;2023-04-21T08:35:39;99406.63;;;20.81;23.04
44138;BME280;29800;55.942;37.314;2023-04-21T08:38:07;99409.56;;;20.93;21.15
44138;BME280;29800;55.942;37.314;2023-04-21T08:40:35;99404.81;;;21.11;20.71
44138;BME280;29800;55.942;37.314;2023-04-21T08:43:08;99396.47;;;21.20;20.37
44138;BME280;29800;55.942;37.314;2023-04-21T08:45:35;99399.41;;;21.24;21.24
44138;BME280;29800;55.942;37.314;2023-04-21T08:48:02;99395.09;;;21.44;21.02
44138;BME280;29800;55.942;37.314;2023-04-21T08:50:30;99391.50;;;21.52;20.56
44138;BME280;29800;55.942;37.314;2023-04-21T08:52:57;99382.34;;;21.52;21.10
44138;BME280;29800;55.942;37.314;2023-04-21T08:55:27;99386.75;;;21.53;19.90
44138;BME280;29800;55.942;37.314;2023-04-21T08:57:54;99383.16;;;21.43;19.84
44138;BME280;29800;55.942;37.314;2023-04-21T09:00:20;99383.00;;;21.48;21.51
44138;BME280;29800;55.942;37.314;2023-04-21T09:02:56;99374.00;;;21.52;21.91
44138;BME280;29800;55.942;37.314;2023-04-21T09:05:27;99365.97;;;21.50;21.12
44138;BME280;29800;55.942;37.314;2023-04-21T09:10:48;99363.81;;;21.56;20.63
44138;BME280;29800;55.942;37.314;2023-04-21T09:13:16;99361.88;;;21.56;20.68
44138;BME280;29800;55.942;37.314;2023-04-21T09:15:45;99358.09;;;21.52;19.79
44138;BME280;29800;55.942;37.314;2023-04-21T09:18:20;99353.34;;;21.53;19.95
44138;BME280;29800;55.942;37.314;2023-04-21T09:20:49;99355.81;;;21.45;21.91
44138;BME280;29800;55.942;37.314;2023-04-21T09:23:16;99352.69;;;21.56;20.52
44138;BME280;29800;55.942;37.314;2023-04-21T09:25:44;99355.59;;;21.68;21.11
44138;BME280;29800;55.942;37.314;2023-04-21T09:28:12;99348.34;;;21.76;20.69
44138;BME280;29800;55.942;37.314;2023-04-21T09:30:42;99344.66;;;21.63;20.08
44138;BME280;29800;55.942;37.314;2023-04-21T09:33:18;99340.16;;;21.79;21.12
44138;BME280;29800;55.942;37.314;2023-04-21T09:35:45;99339.97;;;21.76;20.19
44138;BME280;29800;55.942;37.314;2023-04-21T09:38:12;99328.41;;;21.65;20.36
44138;BME280;29800;55.942;37.314;2023-04-21T09:40:39;99337.16;;;21.55;20.31
44138;BME280;29800;55.942;37.314;2023-04-21T09:43:06;99329.44;;;21.43;20.40
44138;BME280;29800;55.942;37.314;2023-04-21T09:45:33;99322.25;;;21.42;19.60
44138;BME280;29800;55.942;37.314;2023-04-21T09:47:59;99335.44;;;21.71;21.12
44138;BME280;29800;55.942;37.314;2023-04-21T09:50:31;99335.91;;;21.73;22.47
44138;BME280;29800;55.942;37.314;2023-04-21T09:52:59;99323.63;;;21.74;22.64
44138;BME280;29800;55.942;37.314;2023-04-21T09:55:28;99326.53;;;21.48;21.00
44138;BME280;29800;55.942;37.314;2023-04-21T09:57:59;99323.91;;;21.34;20.90
44138;BME280;29800;55.942;37.314;2023-04-21T10:00:28;99321.03;;;21.22;20.83
44138;BME280;29800;55.942;37.314;2023-04-21T10:03:04;99311.84;;;21.21;20.91
44138;BME280;29800;55.942;37.314;2023-04-21T10:05:36;99314.75;;;21.34;21.01
44138;BME280;29800;55.942;37.314;2023-04-21T10:08:03;99307.34;;;21.55;20.71
44138;BME280;29800;55.942;37.314;2023-04-21T10:10:32;99302.91;;;21.45;21.15
44138;BME280;29800;55.942;37.314;2023-04-21T10:13:01;99306.41;;;21.34;20.20
44138;BME280;29800;55.942;37.314;2023-04-21T10:15:39;99312.13;;;21.37;20.65
44138;BME280;29800;55.942;37.314;2023-04-21T10:18:18;99297.91;;;21.30;22.24
44138;BME280;29800;55.942;37.314;2023-04-21T10:21:06;99305.09;;;21.40;21.09
44138;BME280;29800;55.942;37.314;2023-04-21T10:23:47;99306.53;;;21.55;20.90
44138;BME280;29800;55.942;37.314;2023-04-21T10:26:33;99293.22;;;21.60;20.72
44138;BME280;29800;55.942;37.314;2023-04-21T10:29:02;99300.56;;;21.65;22.20
44138;BME280;29800;55.942;37.314;2023-04-21T10:34:17;99293.66;;;21.71;21.21
44138;BME280;29800;55.942;37.314;2023-04-21T10:39:28;99292.78;;;22.09;20.54
44138;BME280;29800;55.942;37.314;2023-04-21T10:41:57;99283.97;;;22.07;20.56
44138;BME280;29800;55.942;37.314;2023-04-21T10:44:53;99286.53;;;22.12;19.99
44138;BME280;29800;55.942;37.314;2023-04-21T10:47:46;99276.75;;;22.06;20.20
44138;BME280;29800;55.942;37.314;2023-04-21T10:50:24;99276.56;;;21.81;20.26
44138;BME280;29800;55.942;37.314;2023-04-21T10:53:14;99268.06;;;21.78;20.18
44138;BME280;29800;55.942;37.314;2023-04-21T10:55:47;99257.97;;;21.94;20.45
44138;BME280;29800;55.942;37.314;2023-04-21T10:58:15;99266.47;;;21.98;21.38
44138;BME280;29800;55.942;37.314;2023-04-21T11:00:41;99264.13;;;21.79;20.58
44138;BME280;29800;55.942;37.314;2023-04-21T11:03:08;99266.25;;;21.43;20.27
44138;BME280;29800;55.942;37.314;2023-04-21T11:05:39;99260.66;;;21.14;20.49
44138;BME280;29800;55.942;37.314;2023-04-21T11:10:53;99261.72;;;20.65;21.54
44138;BME280;29800;55.942;37.314;2023-04-21T11:13:21;99257.97;;;20.35;22.21
44138;BME280;29800;55.942;37.314;2023-04-21T11:15:58;99265.47;;;20.17;22.01
44138;BME280;29800;55.942;37.314;2023-04-21T11:18:36;99261.81;;;19.90;22.86
44138;BME280;29800;55.942;37.314;2023-04-21T11:21:08;99259.31;;;19.71;23.33
44138;BME280;29800;55.942;37.314;2023-04-21T11:23:38;99265.91;;;19.44;22.87
44138;BME280;29800;55.942;37.314;2023-04-21T11:26:06;99267.78;;;19.17;23.26
44138;BME280;29800;55.942;37.314;2023-04-21T11:28:32;99265.06;;;19.03;23.46
44138;BME280;29800;55.942;37.314;2023-04-21T11:30:58;99255.59;;;19.27;23.19
44138;BME280;29800;55.942;37.314;2023-04-21T11:33:27;99247.69;;;19.60;22.82
44138;BME280;29800;55.942;37.314;2023-04-21T11:35:55;99243.56;;;19.89;22.32
44138;BME280;29800;55.942;37.314;2023-04-21T11:38:24;99241.44;;;20.12;23.68
44138;BME280;29800;55.942;37.314;2023-04-21T11:40:50;99239.31;;;20.18;23.16
44138;BME280;29800;55.942;37.314;2023-04-21T11:43:17;99243.25;;;20.17;24.93
44138;BME280;29800;55.942;37.314;2023-04-21T11:48:14;99240.53;;;19.68;22.94
44138;BME280;29800;55.942;37.314;2023-04-21T11:50:47;99234.44;;;19.49;23.22
44138;BME280;29800;55.942;37.314;2023-04-21T11:53:14;99225.22;;;19.22;23.73
44138;BME280;29800;55.942;37.314;2023-04-21T11:55:42;99229.88;;;19.04;23.07
44138;BME280;29800;55.942;37.314;2023-04-21T11:58:09;99225.22;;;18.90;23.84
44138;BME280;29800;55.942;37.314;2023-04-21T12:00:37;99216.84;;;19.13;24.34
44138;BME280;29800;55.942;37.314;2023-04-21T12:03:07;99211.44;;;19.48;23.57
44138;BME280;29800;55.942;37.314;2023-04-21T12:05:35;99212.66;;;19.82;22.42
44138;BME280;29800;55.942;37.314;2023-04-21T12:08:02;99201.25;;;19.92;22.23
44138;BME280;29800;55.942;37.314;2023-04-21T12:10:32;99208.09;;;19.86;22.19
44138;BME280;29800;55.942;37.314;2023-04-21T12:12:58;99212.94;;;19.72;22.39
44138;BME280;29800;55.942;37.314;2023-04-21T12:15:29;99213.41;;;19.56;22.67
44138;BME280;29800;55.942;37.314;2023-04-21T12:17:55;99215.44;;;19.33;23.43
44138;BME280;29800;55.942;37.314;2023-04-21T12:20:23;99214.22;;;19.17;23.62
44138;BME280;29800;55.942;37.314;2023-04-21T12:22:50;99209.63;;;19.03;24.49
44138;BME280;29800;55.942;37.314;2023-04-21T12:25:17;99199.94;;;18.92;24.45
44138;BME280;29800;55.942;37.314;2023-04-21T12:27:49;99204.44;;;18.79;23.84
44138;BME280;29800;55.942;37.314;2023-04-21T12:30:16;99197.56;;;18.77;23.84
44138;BME280;29800;55.942;37.314;2023-04-21T12:32:42;99194.22;;;18.66;23.63
44138;BME280;29800;55.942;37.314;2023-04-21T12:35:09;99189.34;;;18.63;24.09
44138;BME280;29800;55.942;37.314;2023-04-21T12:37:36;99189.19;;;18.68;23.91
44138;BME280;29800;55.942;37.314;2023-04-21T12:40:02;99176.31;;;18.95;23.92
44138;BME280;29800;55.942;37.314;2023-04-21T12:42:30;99184.88;;;19.16;23.83
44138;BME280;29800;55.942;37.314;2023-04-21T12:44:57;99178.88;;;19.22;23.77
44138;BME280;29800;55.942;37.314;2023-04-21T12:47:23;99182.91;;;19.16;23.10
44138;BME280;29800;55.942;37.314;2023-04-21T12:49:49;99180.59;;;19.01;23.59
44138;BME280;29800;55.942;37.314;2023-04-21T12:52:16;99182.75;;;18.81;23.70
44138;BME280;29800;55.942;37.314;2023-04-21T12:54:42;99189.38;;;18.71;24.19
44138;BME280;29800;55.942;37.314;2023-04-21T12:57:09;99179.38;;;18.62;23.88
44138;BME280;29800;55.942;37.314;2023-04-21T12:59:36;99187.25;;;18.68;25.25
44138;BME280;29800;55.942;37.314;2023-04-21T13:02:02;99176.81;;;18.74;24.95
44138;BME280;29800;55.942;37.314;2023-04-21T13:04:29;99171.06;;;18.84;23.95
44138;BME280;29800;55.942;37.314;2023-04-21T13:06:56;99166.63;;;18.83;23.45
44138;BME280;29800;55.942;37.314;2023-04-21T13:09:22;99162.31;;;18.77;23.72